SBKG/CPV METAR and TAF weather

Enter ICAO airport designator
Station Type Date Time Source
SBKG METAR 2021/04/13 01:00 UTC NOAA

SBKG 130100Z 10005KT 9999 SCT018 23/22 Q1017


Station Type Date Time Source
SBKG Decoded METAR 2021/04/13 01:00 UTC NOAA

Campina Grande, Brazil (SBKG) 07-13S 035-53W
Apr 12, 2021 - 09:00 PM EDT / 2021.04.13 0100 UTC
Wind: from the E (100 degrees) at 6 MPH (5 KT):0
Visibility: greater than 7 mile(s):0
Sky conditions: partly cloudy
Temperature: 73 F (23 C)
Dew Point: 71 F (22 C)
Relative Humidity: 94%
Pressure (altimeter): 30.03 in. Hg (1017 hPa)
ob: SBKG 130100Z 10005KT 9999 SCT018 23/22 Q1017
cycle: 1

Station Type Date Time Source
SBKG TAF 2021/04/13 06:27 UTC NOAA

TAF SBKG 130400Z 1306/1318 15005KT 8000 SCT015 TN22/1310Z TX29/1316Z
BECMG 1309/1312 12007KT BKN020
RMK PHC

Example: see airport list